CCL3 weather

Christina Lake Airport
Christina Lake, Alberta, Canada

Public forecast

Using degrees Celsius for public forecast. Weather courtesy of forecast.io.

Closest aviation weather report (METAR) to Christina Lake Airport

Closest report is Fort McMurray Airport, 63.5 nm (117.6 km) NNW. Retrieved 2020/05/31 00:00 UTC (26 minutes ago):

CYMM 310000Z AUTO 12006G18KT 9SM CLR 25/01 A2993 RMK SLP145 DENSITY ALT 2600FT

Closest aviation forecast (TAF) to Christina Lake Airport

Closest forecast is Fort McMurray Airport, 63.5 nm (117.6 km) NNW. Retrieved 2020/05/30 19:39 UTC (5 hours ago):

TAF TAF CYMM 301838Z 3019/3107 VRB03KT P6SM SCT240 BECMG 3019/3021 14008KT FM310200 12006KT P6SM SCT050 RMK FCST BASED ON AUTO OBS AUTO OBS REP NON-REPRESENTATIVE VIS NXT FCST BY 310100Z